createdAt,value
2023-05-12T00:00:37.116Z,8.98
2023-05-12T00:03:12.926Z,8.87
2023-05-12T00:05:40.772Z,8.76
2023-05-12T00:08:08.647Z,8.80
2023-05-12T00:10:37.057Z,9.45
2023-05-12T00:13:04.989Z,10.24
2023-05-12T00:15:32.970Z,10.89
2023-05-12T00:18:00.922Z,11.24
2023-05-12T00:20:28.849Z,10.88
2023-05-12T00:22:56.896Z,10.37
2023-05-12T00:25:24.895Z,9.96
2023-05-12T00:27:52.694Z,9.64
2023-05-12T00:30:21.330Z,9.40
2023-05-12T00:32:49.526Z,9.20
2023-05-12T00:35:17.782Z,9.02
2023-05-12T00:37:45.581Z,8.86
2023-05-12T00:40:13.500Z,8.86
2023-05-12T00:42:41.638Z,9.50
2023-05-12T00:45:10.084Z,10.27
2023-05-12T00:47:38.072Z,10.83
2023-05-12T00:50:08.581Z,11.03
2023-05-12T00:52:36.781Z,10.64
2023-05-12T00:55:05.754Z,10.15
2023-05-12T00:57:33.870Z,9.78
2023-05-12T01:00:01.823Z,9.47
2023-05-12T01:02:29.751Z,9.23
2023-05-12T01:04:57.683Z,9.04
2023-05-12T01:07:28.026Z,8.85
2023-05-12T01:09:56.922Z,8.68
2023-05-12T01:12:26.819Z,8.53
2023-05-12T01:14:57.000Z,8.39
2023-05-12T01:17:36.079Z,8.38
2023-05-12T01:20:08.420Z,9.02
2023-05-12T01:22:39.046Z,9.71
2023-05-12T01:25:13.002Z,10.27
2023-05-12T01:27:42.995Z,10.61
2023-05-12T01:30:16.904Z,10.24
2023-05-12T01:32:44.869Z,9.71
2023-05-12T01:35:12.743Z,9.31
2023-05-12T01:37:40.624Z,9.01
2023-05-12T01:40:09.054Z,8.77
2023-05-12T01:42:41.092Z,8.58
2023-05-12T01:45:09.849Z,8.39
2023-05-12T01:47:37.790Z,8.36
2023-05-12T01:50:06.966Z,8.94
2023-05-12T01:52:35.125Z,9.59
2023-05-12T01:55:03.097Z,10.09
2023-05-12T01:57:30.975Z,10.51
2023-05-12T01:59:58.834Z,10.68
2023-05-12T02:02:26.741Z,10.23
2023-05-12T02:04:54.755Z,9.71
2023-05-12T02:07:23.004Z,9.31
2023-05-12T02:09:51.291Z,8.99
2023-05-12T02:12:19.082Z,8.75
2023-05-12T02:14:46.858Z,8.55
2023-05-12T02:17:14.669Z,8.38
2023-05-12T02:19:42.496Z,8.21
2023-05-12T02:22:10.304Z,8.05
2023-05-12T02:24:38.086Z,8.04
2023-05-12T02:27:06.096Z,8.60
2023-05-12T02:29:33.857Z,9.31
2023-05-12T02:32:01.841Z,9.85
2023-05-12T02:34:29.810Z,10.28
2023-05-12T02:36:57.528Z,10.49
2023-05-12T02:39:25.345Z,10.06
2023-05-12T02:41:53.148Z,9.52
2023-05-12T02:44:22.525Z,9.10
2023-05-12T02:46:50.412Z,8.77
2023-05-12T02:49:18.279Z,8.52
2023-05-12T02:51:46.531Z,8.32
2023-05-12T02:54:14.252Z,8.16
2023-05-12T02:56:42.096Z,8.12
2023-05-12T02:59:09.897Z,8.63
2023-05-12T03:01:37.977Z,9.23
2023-05-12T03:04:06.025Z,9.79
2023-05-12T03:06:33.853Z,10.22
2023-05-12T03:09:01.665Z,10.36
2023-05-12T03:11:29.454Z,9.97
2023-05-12T03:13:57.218Z,9.50
2023-05-12T03:16:25.140Z,9.14
2023-05-12T03:18:53.868Z,8.86
2023-05-12T03:21:22.375Z,8.65
2023-05-12T03:23:50.163Z,8.47
2023-05-12T03:26:18.545Z,8.34
2023-05-12T03:28:46.400Z,8.24
2023-05-12T03:31:14.218Z,8.18
2023-05-12T03:33:42.011Z,8.24
2023-05-12T03:36:10.441Z,8.50
2023-05-12T03:38:38.262Z,9.43
2023-05-12T03:41:07.210Z,10.69
2023-05-12T03:43:36.044Z,11.82
2023-05-12T03:46:04.151Z,12.20
2023-05-12T03:48:32.239Z,12.51
2023-05-12T03:51:00.482Z,13.01
2023-05-12T03:53:28.432Z,13.69
2023-05-12T03:55:56.291Z,14.48
2023-05-12T03:58:24.744Z,15.28
2023-05-12T04:00:52.498Z,16.08
2023-05-12T04:03:20.318Z,16.86
2023-05-12T04:05:48.180Z,17.61
2023-05-12T04:08:16.101Z,18.34
2023-05-12T04:10:43.946Z,19.08
2023-05-12T04:13:11.769Z,19.76
2023-05-12T04:15:39.992Z,20.43
2023-05-12T04:18:07.692Z,21.09
2023-05-12T04:20:35.538Z,21.76
2023-05-12T04:23:03.356Z,22.41
2023-05-12T04:25:31.268Z,22.99
2023-05-12T04:27:59.248Z,23.56
2023-05-12T04:30:27.051Z,24.15
2023-05-12T04:32:54.944Z,24.70
2023-05-12T04:35:22.786Z,25.27
2023-05-12T04:37:51.184Z,25.86
2023-05-12T04:40:19.272Z,26.43
2023-05-12T04:42:47.414Z,27.01
2023-05-12T04:45:15.198Z,27.58
2023-05-12T04:47:43.055Z,28.14
2023-05-12T04:50:11.707Z,28.41
2023-05-12T04:52:39.585Z,28.52
2023-05-12T04:55:08.835Z,28.52
2023-05-12T04:57:36.718Z,28.52
2023-05-12T05:00:07.154Z,28.44
2023-05-12T05:02:35.162Z,27.63
2023-05-12T05:05:03.237Z,26.80
2023-05-12T05:07:31.267Z,26.65
2023-05-12T05:09:59.136Z,26.83
2023-05-12T05:12:26.899Z,26.95
2023-05-12T05:14:54.856Z,26.71
2023-05-12T05:17:22.763Z,26.77
2023-05-12T05:19:58.330Z,26.79
2023-05-12T05:22:27.510Z,26.43
2023-05-12T05:24:55.429Z,26.23
2023-05-12T05:27:23.204Z,25.94
2023-05-12T05:29:51.329Z,25.20
2023-05-12T05:32:19.124Z,24.18
2023-05-12T05:34:46.890Z,23.28
2023-05-12T05:37:14.699Z,22.40
2023-05-12T05:39:42.640Z,21.68
2023-05-12T05:42:10.443Z,20.97
2023-05-12T05:44:38.264Z,20.26
2023-05-12T05:47:06.174Z,19.62
2023-05-12T05:49:34.026Z,19.09
2023-05-12T05:52:01.789Z,18.55
2023-05-12T05:54:29.524Z,17.97
2023-05-12T05:56:57.403Z,17.54
2023-05-12T05:59:25.562Z,17.25
2023-05-12T06:01:53.418Z,17.03
2023-05-12T06:04:21.401Z,16.80
2023-05-12T06:06:49.225Z,16.60
2023-05-12T06:09:17.251Z,16.45
2023-05-12T06:11:45.106Z,16.29
2023-05-12T06:14:13.018Z,16.16
2023-05-12T06:16:40.871Z,16.13
2023-05-12T06:19:09.518Z,16.12
2023-05-12T06:21:37.383Z,16.15
2023-05-12T06:24:05.376Z,16.16
2023-05-12T06:26:33.488Z,16.19
2023-05-12T06:29:01.305Z,16.22
2023-05-12T06:31:29.312Z,16.19
2023-05-12T06:33:57.153Z,16.11
2023-05-12T06:36:24.975Z,16.00
2023-05-12T06:38:53.992Z,15.95
2023-05-12T06:41:23.984Z,15.93
2023-05-12T06:43:52.253Z,15.96
2023-05-12T06:46:20.233Z,16.07
2023-05-12T06:48:48.076Z,16.20
2023-05-12T06:51:15.921Z,16.31
2023-05-12T06:53:43.773Z,16.42
2023-05-12T06:56:12.335Z,16.52
2023-05-12T06:58:40.118Z,16.64
2023-05-12T07:01:08.098Z,16.76
2023-05-12T07:03:36.255Z,16.83
2023-05-12T07:06:04.393Z,16.92
2023-05-12T07:08:32.344Z,17.03
2023-05-12T07:11:03.166Z,17.10
2023-05-12T07:13:31.073Z,17.12
2023-05-12T07:15:59.942Z,17.19
2023-05-12T07:18:27.791Z,17.29
2023-05-12T07:20:55.829Z,17.34
2023-05-12T07:23:23.568Z,17.36
2023-05-12T07:25:51.419Z,17.48
2023-05-12T07:28:19.288Z,17.66
2023-05-12T07:30:47.461Z,17.83
2023-05-12T07:33:15.379Z,17.92
2023-05-12T07:35:43.561Z,17.98
2023-05-12T07:38:11.349Z,18.06
2023-05-12T07:40:39.089Z,18.18
2023-05-12T07:43:06.865Z,18.28
2023-05-12T07:45:34.663Z,18.38
2023-05-12T07:48:02.659Z,18.51
2023-05-12T07:50:30.699Z,18.62
2023-05-12T07:52:58.452Z,18.70
2023-05-12T07:55:26.647Z,18.74
2023-05-12T07:57:54.445Z,18.80
2023-05-12T08:00:22.441Z,18.94
2023-05-12T08:02:50.326Z,19.05
2023-05-12T08:05:18.399Z,19.15
2023-05-12T08:07:46.475Z,19.29
2023-05-12T08:10:14.347Z,19.46
2023-05-12T08:12:42.922Z,19.60
2023-05-12T08:15:11.474Z,19.76
2023-05-12T08:17:39.435Z,19.92
2023-05-12T08:20:09.162Z,20.03
2023-05-12T08:22:36.976Z,20.12
2023-05-12T08:25:06.137Z,20.26
2023-05-12T08:27:33.972Z,20.39
2023-05-12T08:30:01.828Z,20.44
2023-05-12T08:32:29.706Z,20.50
2023-05-12T08:34:57.647Z,20.55
2023-05-12T08:37:26.330Z,20.59
2023-05-12T08:39:54.395Z,20.67
2023-05-12T08:42:44.566Z,20.78
2023-05-12T08:45:12.587Z,20.90
2023-05-12T08:47:43.792Z,21.03
2023-05-12T08:50:14.403Z,21.10
2023-05-12T08:52:42.395Z,21.08
2023-05-12T08:55:11.276Z,21.05
2023-05-12T08:57:45.546Z,21.08
2023-05-12T09:00:15.328Z,21.14
2023-05-12T09:02:52.887Z,21.14
2023-05-12T09:05:23.466Z,21.15
2023-05-12T09:07:55.942Z,21.19
2023-05-12T09:10:34.976Z,21.31
2023-05-12T09:13:23.570Z,21.39
2023-05-12T09:15:56.860Z,21.46
2023-05-12T09:18:24.904Z,21.58
2023-05-12T09:20:52.783Z,21.73
2023-05-12T09:23:23.272Z,21.88
2023-05-12T09:26:01.848Z,22.01
2023-05-12T09:28:38.351Z,22.09
2023-05-12T09:31:23.142Z,22.13
2023-05-12T09:33:52.555Z,22.07
2023-05-12T09:36:23.014Z,22.10
2023-05-12T09:39:04.884Z,22.17
2023-05-12T09:41:37.830Z,22.19
2023-05-12T09:44:08.631Z,22.25
2023-05-12T09:46:38.655Z,22.31
2023-05-12T09:49:06.630Z,22.37
2023-05-12T09:51:34.550Z,22.44
2023-05-12T09:54:02.608Z,22.45
2023-05-12T09:56:32.551Z,22.42
2023-05-12T09:59:04.600Z,22.35
2023-05-12T10:01:32.672Z,22.27
2023-05-12T10:04:01.901Z,22.23
2023-05-12T10:06:41.557Z,22.19
2023-05-12T10:09:19.557Z,22.13
2023-05-12T10:11:51.950Z,22.17
2023-05-12T10:14:23.620Z,22.19
2023-05-12T10:16:52.912Z,22.17
2023-05-12T10:19:22.708Z,22.20
2023-05-12T10:21:51.338Z,22.33
2023-05-12T10:24:22.125Z,22.39
2023-05-12T10:26:50.860Z,22.46
2023-05-12T10:29:18.961Z,22.53
2023-05-12T10:31:48.047Z,22.66
2023-05-12T10:34:19.164Z,22.82
2023-05-12T10:36:50.276Z,22.99
2023-05-12T10:39:18.498Z,23.08
2023-05-12T10:41:46.319Z,23.06
2023-05-12T10:44:14.149Z,23.08
2023-05-12T10:46:42.336Z,23.11
2023-05-12T10:49:13.117Z,23.08
2023-05-12T10:51:50.074Z,23.10
2023-05-12T10:55:52.266Z,23.07
2023-05-12T10:58:20.891Z,23.02
2023-05-12T11:00:52.660Z,22.97
2023-05-12T11:03:25.834Z,22.89
2023-05-12T11:06:07.084Z,22.88
2023-05-12T11:08:37.817Z,22.96
2023-05-12T11:11:06.421Z,22.94
2023-05-12T11:13:35.782Z,22.86
2023-05-12T11:16:03.859Z,22.78
2023-05-12T11:18:31.838Z,22.71
2023-05-12T11:21:12.242Z,22.67
2023-05-12T11:23:40.126Z,22.64
2023-05-12T11:26:20.093Z,22.70
2023-05-12T11:28:47.958Z,22.78
2023-05-12T11:31:20.933Z,22.83
2023-05-12T11:33:55.946Z,22.84
2023-05-12T11:36:40.463Z,22.87
2023-05-12T11:39:16.174Z,22.90
2023-05-12T11:41:45.178Z,22.90
2023-05-12T11:44:15.965Z,22.87
2023-05-12T11:47:01.480Z,22.91
2023-05-12T11:49:31.620Z,23.00
2023-05-12T11:52:02.485Z,23.07
2023-05-12T11:54:31.412Z,23.14
2023-05-12T11:56:59.640Z,23.13
2023-05-12T11:59:33.439Z,23.09
2023-05-12T12:02:04.120Z,23.03
2023-05-12T12:04:37.057Z,23.00
2023-05-12T12:07:07.298Z,23.05
2023-05-12T12:09:41.958Z,23.07
2023-05-12T12:12:11.776Z,23.08
2023-05-12T12:14:41.703Z,23.07
2023-05-12T12:17:09.681Z,23.01
2023-05-12T12:19:37.523Z,22.98
2023-05-12T12:22:05.627Z,23.02
2023-05-12T12:24:33.672Z,23.06
2023-05-12T12:27:01.687Z,22.97
2023-05-12T12:29:29.581Z,22.93
2023-05-12T12:31:57.626Z,22.97
2023-05-12T12:34:25.464Z,23.07
2023-05-12T12:36:53.309Z,23.20
2023-05-12T12:39:22.009Z,23.30
2023-05-12T12:41:50.438Z,23.30
2023-05-12T12:44:18.280Z,23.29
2023-05-12T12:46:46.211Z,23.28
2023-05-12T12:49:14.595Z,23.28
2023-05-12T12:51:46.354Z,23.31
2023-05-12T12:54:15.866Z,23.36
2023-05-12T12:56:44.727Z,23.40
2023-05-12T12:59:13.062Z,23.44
2023-05-12T13:01:40.896Z,23.53
2023-05-12T13:04:08.787Z,23.66
2023-05-12T13:06:36.923Z,23.72
2023-05-12T13:09:05.267Z,23.78
2023-05-12T13:11:33.200Z,23.82
2023-05-12T13:14:02.453Z,23.80
2023-05-12T13:16:31.148Z,23.69
2023-05-12T13:18:59.054Z,23.66
2023-05-12T13:21:27.291Z,23.61
2023-05-12T13:23:55.133Z,23.55
2023-05-12T13:26:23.717Z,23.47
2023-05-12T13:28:51.499Z,23.39
2023-05-12T13:31:19.437Z,23.34
2023-05-12T13:33:47.964Z,23.27
2023-05-12T13:36:15.790Z,23.15
2023-05-12T13:38:43.653Z,23.07
2023-05-12T13:41:11.483Z,23.01
2023-05-12T13:43:39.497Z,23.02
2023-05-12T13:46:07.277Z,23.07
2023-05-12T13:48:35.904Z,23.11
2023-05-12T13:51:03.889Z,23.11
2023-05-12T13:53:32.358Z,23.09
2023-05-12T13:56:03.691Z,23.08
2023-05-12T13:58:31.965Z,23.05
2023-05-12T14:01:00.293Z,23.01
2023-05-12T14:03:28.114Z,23.01
2023-05-12T14:05:56.016Z,23.02
2023-05-12T14:08:23.963Z,23.03
2023-05-12T14:10:52.126Z,23.06
2023-05-12T14:13:20.254Z,23.07
2023-05-12T14:15:49.681Z,23.08
2023-05-12T14:18:18.358Z,23.02
2023-05-12T14:20:47.084Z,22.91
2023-05-12T14:23:15.093Z,22.82
2023-05-12T14:25:43.046Z,22.74
2023-05-12T14:28:11.114Z,22.65
2023-05-12T14:30:39.839Z,22.66
2023-05-12T14:33:08.269Z,22.69
2023-05-12T14:35:36.414Z,22.67
2023-05-12T14:38:04.666Z,22.66
2023-05-12T14:40:32.580Z,22.62
2023-05-12T14:43:00.344Z,22.58
2023-05-12T14:45:28.555Z,22.61
2023-05-12T14:47:56.463Z,22.65
2023-05-12T14:50:24.474Z,22.70
2023-05-12T14:52:52.930Z,22.71
2023-05-12T14:55:24.717Z,22.64
2023-05-12T14:57:54.217Z,22.57
2023-05-12T15:00:24.225Z,22.39
2023-05-12T15:02:52.521Z,22.09
2023-05-12T15:05:21.223Z,21.86
2023-05-12T15:07:54.028Z,21.77
2023-05-12T15:10:22.780Z,21.72
2023-05-12T15:12:53.739Z,21.62
2023-05-12T15:15:24.798Z,21.53
2023-05-12T15:17:54.729Z,21.44
2023-05-12T15:20:22.590Z,21.34
2023-05-12T15:22:54.602Z,21.23
2023-05-12T15:25:22.708Z,21.07
2023-05-12T15:27:51.166Z,20.90
2023-05-12T15:30:19.189Z,20.77
2023-05-12T15:32:47.719Z,20.66
2023-05-12T15:35:16.637Z,20.53
2023-05-12T15:37:44.519Z,20.42
2023-05-12T15:40:13.806Z,20.35
2023-05-12T15:42:41.610Z,20.31
2023-05-12T15:45:09.971Z,20.32
2023-05-12T15:47:37.936Z,20.38
2023-05-12T15:50:06.843Z,20.45
2023-05-12T15:52:34.805Z,20.51
2023-05-12T15:55:02.627Z,20.50
2023-05-12T15:57:30.457Z,20.42
2023-05-12T15:59:59.877Z,20.33
2023-05-12T16:02:28.000Z,20.23
2023-05-12T16:04:59.173Z,20.09
2023-05-12T16:07:29.784Z,19.95
2023-05-12T16:10:01.319Z,19.85
2023-05-12T16:12:31.587Z,19.80
2023-05-12T16:15:02.778Z,19.89
2023-05-12T16:17:31.386Z,20.06
2023-05-12T16:19:59.875Z,20.39
2023-05-12T16:22:28.313Z,20.84
2023-05-12T16:24:57.674Z,21.17
2023-05-12T16:27:25.718Z,21.39
2023-05-12T16:29:53.813Z,21.59
2023-05-12T16:32:21.983Z,21.75
2023-05-12T16:34:49.970Z,21.79
2023-05-12T16:37:19.007Z,21.76
2023-05-12T16:39:48.874Z,21.79
2023-05-12T16:42:19.731Z,21.90
2023-05-12T16:44:48.534Z,21.94
2023-05-12T16:47:16.390Z,22.05
2023-05-12T16:49:44.273Z,22.13
2023-05-12T16:52:12.624Z,22.11
2023-05-12T16:54:40.503Z,22.00
2023-05-12T16:57:08.305Z,21.94
2023-05-12T16:59:36.988Z,21.95
2023-05-12T17:02:05.821Z,22.01
2023-05-12T17:04:34.455Z,22.15
2023-05-12T17:07:03.576Z,22.35
2023-05-12T17:09:31.390Z,22.52
2023-05-12T17:11:59.656Z,22.75
2023-05-12T17:14:27.845Z,22.88
2023-05-12T17:16:55.703Z,23.00
2023-05-12T17:19:23.748Z,23.23
2023-05-12T17:21:52.252Z,23.46
2023-05-12T17:24:20.067Z,23.59
2023-05-12T17:26:47.917Z,23.53
2023-05-12T17:29:15.764Z,23.32
2023-05-12T17:31:43.914Z,23.18
2023-05-12T17:34:12.425Z,22.96
2023-05-12T17:36:42.948Z,22.67
2023-05-12T17:39:10.907Z,22.34
2023-05-12T17:41:39.102Z,21.94
2023-05-12T17:44:07.364Z,21.54
2023-05-12T17:46:35.480Z,21.12
2023-05-12T17:49:03.561Z,20.57
2023-05-12T17:51:31.883Z,20.03
2023-05-12T17:54:03.987Z,19.57
2023-05-12T17:56:35.293Z,19.16
2023-05-12T17:59:07.176Z,18.71
2023-05-12T18:01:35.772Z,18.29
2023-05-12T18:04:06.896Z,18.05
2023-05-12T18:06:35.043Z,17.86
2023-05-12T18:09:05.977Z,17.69
2023-05-12T18:11:35.110Z,17.47
2023-05-12T18:14:06.064Z,17.27
2023-05-12T18:16:34.522Z,17.09
2023-05-12T18:19:03.999Z,16.94
2023-05-12T18:21:34.841Z,16.80
2023-05-12T18:24:05.721Z,16.68
2023-05-12T18:26:34.062Z,16.56
2023-05-12T18:29:02.048Z,16.46
2023-05-12T18:31:30.337Z,16.35
2023-05-12T18:34:05.950Z,16.23
2023-05-12T18:36:43.848Z,16.08
2023-05-12T18:39:18.348Z,15.95
2023-05-12T18:41:51.591Z,15.84
2023-05-12T18:44:25.473Z,15.72
2023-05-12T18:47:04.337Z,15.59
2023-05-12T18:49:37.787Z,15.46
2023-05-12T18:52:06.689Z,15.35
2023-05-12T18:54:38.063Z,15.24
2023-05-12T18:57:10.939Z,15.14
2023-05-12T18:59:41.873Z,15.03
2023-05-12T19:02:15.129Z,14.93
2023-05-12T19:04:45.836Z,14.82
2023-05-12T19:07:15.663Z,14.71
2023-05-12T19:09:44.653Z,14.61
2023-05-12T19:12:12.560Z,14.50
2023-05-12T19:14:41.054Z,14.40
2023-05-12T19:17:08.979Z,14.30
2023-05-12T19:19:36.918Z,14.22
2023-05-12T19:22:05.039Z,14.13
2023-05-12T19:24:33.738Z,14.05
2023-05-12T19:27:01.804Z,13.96
2023-05-12T19:29:29.694Z,13.88
2023-05-12T19:31:57.697Z,13.79
2023-05-12T19:34:25.764Z,13.69
2023-05-12T19:36:53.713Z,13.59
2023-05-12T19:39:22.526Z,13.49
2023-05-12T19:41:51.785Z,13.38
2023-05-12T19:44:22.518Z,13.28
2023-05-12T19:46:51.157Z,13.20
2023-05-12T19:49:19.154Z,13.12
2023-05-12T19:51:48.792Z,13.06
2023-05-12T19:54:16.783Z,13.01
2023-05-12T19:56:44.569Z,12.94
2023-05-12T19:59:12.539Z,12.86
2023-05-12T20:01:41.700Z,12.79
2023-05-12T20:04:09.572Z,12.72
2023-05-12T20:06:37.637Z,12.65
2023-05-12T20:09:05.479Z,12.59
2023-05-12T20:11:33.180Z,12.53
2023-05-12T20:14:01.322Z,12.46
2023-05-12T20:16:30.068Z,12.41
2023-05-12T20:19:02.656Z,12.47
2023-05-12T20:21:33.994Z,13.14
2023-05-12T20:24:01.998Z,13.85
2023-05-12T20:26:30.803Z,14.29
2023-05-12T20:29:00.381Z,14.04
2023-05-12T20:31:28.624Z,13.59
2023-05-12T20:33:56.728Z,13.24
2023-05-12T20:36:24.440Z,12.99
2023-05-12T20:38:52.395Z,12.81
2023-05-12T20:41:20.194Z,12.66
2023-05-12T20:43:48.126Z,12.53
2023-05-12T20:46:15.966Z,12.38
2023-05-12T20:48:43.831Z,12.27
2023-05-12T20:51:13.083Z,12.29
2023-05-12T20:53:40.960Z,12.93
2023-05-12T20:56:08.973Z,13.58
2023-05-12T20:58:37.044Z,13.99
2023-05-12T21:01:05.017Z,14.10
2023-05-12T21:03:34.219Z,13.71
2023-05-12T21:06:04.899Z,13.24
2023-05-12T21:08:32.764Z,12.85
2023-05-12T21:11:01.016Z,12.55
2023-05-12T21:13:28.972Z,12.33
2023-05-12T21:15:56.915Z,12.15
2023-05-12T21:18:25.080Z,12.00
2023-05-12T21:20:53.186Z,11.96
2023-05-12T21:23:20.947Z,12.35
2023-05-12T21:25:49.304Z,12.89
2023-05-12T21:28:17.803Z,13.13
2023-05-12T21:30:45.564Z,12.83
2023-05-12T21:33:13.553Z,12.49
2023-05-12T21:35:41.605Z,12.22
2023-05-12T21:38:10.241Z,12.01
2023-05-12T21:40:38.919Z,11.95
2023-05-12T21:43:06.728Z,12.39
2023-05-12T21:45:34.488Z,12.92
2023-05-12T21:48:02.340Z,13.27
2023-05-12T21:50:30.334Z,13.46
2023-05-12T21:52:58.211Z,13.53
2023-05-12T21:55:26.541Z,13.19
2023-05-12T21:57:57.026Z,12.74
2023-05-12T22:00:25.070Z,12.37
2023-05-12T22:02:52.915Z,12.09
2023-05-12T22:05:20.917Z,11.92
2023-05-12T22:07:48.759Z,12.31
2023-05-12T22:10:16.823Z,12.93
2023-05-12T22:12:45.983Z,13.47
2023-05-12T22:15:13.861Z,13.81
2023-05-12T22:17:42.106Z,13.89
2023-05-12T22:20:11.063Z,13.43
2023-05-12T22:22:39.009Z,12.87
2023-05-12T22:25:07.648Z,12.45
2023-05-12T22:27:35.446Z,12.13
2023-05-12T22:30:04.180Z,11.88
2023-05-12T22:32:32.074Z,11.77
2023-05-12T22:34:59.935Z,12.25
2023-05-12T22:37:27.920Z,12.86
2023-05-12T22:39:55.759Z,13.27
2023-05-12T22:42:23.914Z,13.43
2023-05-12T22:44:52.148Z,13.55
2023-05-12T22:47:20.007Z,13.64
2023-05-12T22:49:47.813Z,13.19
2023-05-12T22:52:15.678Z,12.64
2023-05-12T22:54:43.426Z,12.20
2023-05-12T22:57:11.195Z,11.84
2023-05-12T22:59:38.982Z,11.65
2023-05-12T23:02:06.759Z,11.98
2023-05-12T23:04:34.553Z,12.40
2023-05-12T23:07:02.266Z,12.70
2023-05-12T23:09:30.076Z,12.96
2023-05-12T23:11:57.950Z,13.15
2023-05-12T23:14:25.736Z,13.20
2023-05-12T23:16:53.670Z,13.22
2023-05-12T23:19:24.126Z,13.40
2023-05-12T23:21:51.928Z,13.61
2023-05-12T23:24:19.770Z,13.18
2023-05-12T23:26:47.629Z,12.61
2023-05-12T23:29:15.423Z,12.12
2023-05-12T23:31:43.386Z,11.73
2023-05-12T23:34:11.281Z,11.52
2023-05-12T23:36:39.114Z,11.94
2023-05-12T23:39:06.882Z,12.44
2023-05-12T23:41:36.421Z,12.70
2023-05-12T23:44:04.500Z,12.84
2023-05-12T23:46:32.286Z,13.00
2023-05-12T23:49:00.189Z,13.20
2023-05-12T23:51:28.853Z,13.35
2023-05-12T23:53:56.674Z,12.87
2023-05-12T23:56:24.469Z,12.24
2023-05-12T23:58:52.288Z,11.72
